sensor_id;sensor_type;location;lat;lon;timestamp;pressure;altitude;pressure_sealevel;temperature;humidity
8573;BME280;4324;42.012;24.872;2023-04-28T00:02:15;99090.19;;;12.29;53.57
8573;BME280;4324;42.012;24.872;2023-04-28T00:04:42;99111.56;;;12.36;53.26
8573;BME280;4324;42.012;24.872;2023-04-28T00:07:10;99107.25;;;12.35;53.28
8573;BME280;4324;42.012;24.872;2023-04-28T00:09:37;99105.44;;;12.35;53.58
8573;BME280;4324;42.012;24.872;2023-04-28T00:12:04;99096.31;;;12.30;53.70
8573;BME280;4324;42.012;24.872;2023-04-28T00:14:31;99110.06;;;12.33;53.45
8573;BME280;4324;42.012;24.872;2023-04-28T00:16:59;99106.94;;;12.30;53.62
8573;BME280;4324;42.012;24.872;2023-04-28T00:19:27;99104.94;;;12.32;54.04
8573;BME280;4324;42.012;24.872;2023-04-28T00:21:54;99087.91;;;12.18;54.06
8573;BME280;4324;42.012;24.872;2023-04-28T00:24:21;99103.78;;;12.26;54.12
8573;BME280;4324;42.012;24.872;2023-04-28T00:26:48;99098.00;;;12.23;53.90
8573;BME280;4324;42.012;24.872;2023-04-28T00:29:15;99104.47;;;12.28;54.20
8573;BME280;4324;42.012;24.872;2023-04-28T00:31:43;99090.91;;;12.15;54.05
8573;BME280;4324;42.012;24.872;2023-04-28T00:34:11;99073.56;;;12.04;54.09
8573;BME280;4324;42.012;24.872;2023-04-28T00:36:39;99098.34;;;12.28;54.48
8573;BME280;4324;42.012;24.872;2023-04-28T00:39:06;99086.91;;;12.19;54.22
8573;BME280;4324;42.012;24.872;2023-04-28T00:41:34;99101.97;;;12.27;54.31
8573;BME280;4324;42.012;24.872;2023-04-28T00:44:00;99087.09;;;12.18;54.04
8573;BME280;4324;42.012;24.872;2023-04-28T00:46:29;99070.06;;;12.04;54.02
8573;BME280;4324;42.012;24.872;2023-04-28T00:48:56;99082.00;;;12.08;54.24
8573;BME280;4324;42.012;24.872;2023-04-28T00:51:25;99082.53;;;12.03;54.34
8573;BME280;4324;42.012;24.872;2023-04-28T00:53:53;99108.34;;;12.18;54.38
8573;BME280;4324;42.012;24.872;2023-04-28T00:56:20;99098.41;;;12.11;54.23
8573;BME280;4324;42.012;24.872;2023-04-28T00:58:47;99094.63;;;12.06;54.35
8573;BME280;4324;42.012;24.872;2023-04-28T01:01:14;99087.53;;;11.98;54.33
8573;BME280;4324;42.012;24.872;2023-04-28T01:03:41;99093.31;;;12.02;54.42
8573;BME280;4324;42.012;24.872;2023-04-28T01:06:08;99090.34;;;11.97;54.47
8573;BME280;4324;42.012;24.872;2023-04-28T01:08:37;99084.59;;;11.85;54.60
8573;BME280;4324;42.012;24.872;2023-04-28T01:11:04;99107.44;;;11.94;54.54
8573;BME280;4324;42.012;24.872;2023-04-28T01:13:31;99086.56;;;11.75;54.79
8573;BME280;4324;42.012;24.872;2023-04-28T01:15:58;99115.28;;;11.79;54.69
8573;BME280;4324;42.012;24.872;2023-04-28T01:18:25;99104.66;;;11.71;55.06
8573;BME280;4324;42.012;24.872;2023-04-28T01:20:52;99107.84;;;11.67;55.00
8573;BME280;4324;42.012;24.872;2023-04-28T01:23:19;99085.38;;;11.46;55.04
8573;BME280;4324;42.012;24.872;2023-04-28T01:25:47;99114.84;;;11.51;55.25
8573;BME280;4324;42.012;24.872;2023-04-28T01:28:14;99115.88;;;11.42;55.29
8573;BME280;4324;42.012;24.872;2023-04-28T01:30:41;99094.16;;;11.30;55.47
8573;BME280;4324;42.012;24.872;2023-04-28T01:33:08;99105.91;;;11.36;55.67
8573;BME280;4324;42.012;24.872;2023-04-28T01:35:34;99082.41;;;11.25;56.08
8573;BME280;4324;42.012;24.872;2023-04-28T01:38:01;99079.59;;;11.18;56.08
8573;BME280;4324;42.012;24.872;2023-04-28T01:40:29;99100.28;;;11.31;55.82
8573;BME280;4324;42.012;24.872;2023-04-28T01:42:58;99088.38;;;11.19;55.53
8573;BME280;4324;42.012;24.872;2023-04-28T01:45:25;99100.78;;;11.26;55.70
8573;BME280;4324;42.012;24.872;2023-04-28T01:47:52;99096.00;;;11.22;55.87
8573;BME280;4324;42.012;24.872;2023-04-28T01:50:19;99090.69;;;11.22;56.12
8573;BME280;4324;42.012;24.872;2023-04-28T01:52:46;99102.28;;;11.29;56.17
8573;BME280;4324;42.012;24.872;2023-04-28T01:55:13;99105.94;;;11.28;56.66
8573;BME280;4324;42.012;24.872;2023-04-28T01:57:39;99106.28;;;11.25;56.59
8573;BME280;4324;42.012;24.872;2023-04-28T02:00:09;99089.06;;;11.12;56.68
8573;BME280;4324;42.012;24.872;2023-04-28T02:02:36;99089.41;;;11.09;56.76
8573;BME280;4324;42.012;24.872;2023-04-28T02:05:03;99102.31;;;11.12;56.74
8573;BME280;4324;42.012;24.872;2023-04-28T02:07:30;99109.78;;;11.09;56.62
8573;BME280;4324;42.012;24.872;2023-04-28T02:09:57;99099.34;;;10.99;56.75
8573;BME280;4324;42.012;24.872;2023-04-28T02:12:23;99109.94;;;10.99;57.08
8573;BME280;4324;42.012;24.872;2023-04-28T02:14:50;99107.13;;;10.84;57.33
8573;BME280;4324;42.012;24.872;2023-04-28T02:17:19;99115.88;;;10.77;57.44
8573;BME280;4324;42.012;24.872;2023-04-28T02:19:46;99106.63;;;10.73;57.86
8573;BME280;4324;42.012;24.872;2023-04-28T02:22:12;99096.50;;;10.60;58.08
8573;BME280;4324;42.012;24.872;2023-04-28T02:24:39;99118.53;;;10.69;58.21
8573;BME280;4324;42.012;24.872;2023-04-28T02:27:06;99118.84;;;10.65;58.29
8573;BME280;4324;42.012;24.872;2023-04-28T02:29:33;99122.16;;;10.59;58.52
8573;BME280;4324;42.012;24.872;2023-04-28T02:32:00;99038.63;;;10.06;58.41
8573;BME280;4324;42.012;24.872;2023-04-28T02:34:30;99119.00;;;10.56;58.54
8573;BME280;4324;42.012;24.872;2023-04-28T02:36:57;99119.50;;;10.51;58.76
8573;BME280;4324;42.012;24.872;2023-04-28T02:39:24;99131.59;;;10.54;58.89
8573;BME280;4324;42.012;24.872;2023-04-28T02:41:51;99115.81;;;10.36;58.81
8573;BME280;4324;42.012;24.872;2023-04-28T02:44:19;99124.25;;;10.31;59.17
8573;BME280;4324;42.012;24.872;2023-04-28T02:46:46;99117.00;;;10.07;59.53
8573;BME280;4324;42.012;24.872;2023-04-28T02:49:13;99112.69;;;9.98;59.67
8573;BME280;4324;42.012;24.872;2023-04-28T02:51:41;99142.16;;;10.11;59.89
8573;BME280;4324;42.012;24.872;2023-04-28T02:54:08;99143.47;;;10.07;60.14
8573;BME280;4324;42.012;24.872;2023-04-28T02:56:35;99144.59;;;10.05;60.20
8573;BME280;4324;42.012;24.872;2023-04-28T02:59:05;99140.00;;;10.07;60.56
8573;BME280;4324;42.012;24.872;2023-04-28T03:01:32;99144.28;;;10.08;60.64
8573;BME280;4324;42.012;24.872;2023-04-28T03:03:59;99146.13;;;10.07;60.27
8573;BME280;4324;42.012;24.872;2023-04-28T03:06:26;99145.47;;;10.05;60.28
8573;BME280;4324;42.012;24.872;2023-04-28T03:08:54;99135.81;;;9.96;60.39
8573;BME280;4324;42.012;24.872;2023-04-28T03:11:21;99157.38;;;10.09;60.44
8573;BME280;4324;42.012;24.872;2023-04-28T03:13:47;99144.81;;;10.11;60.50
8573;BME280;4324;42.012;24.872;2023-04-28T03:16:14;99151.44;;;10.15;60.71
8573;BME280;4324;42.012;24.872;2023-04-28T03:18:41;99154.44;;;10.21;60.84
8573;BME280;4324;42.012;24.872;2023-04-28T03:21:08;99100.06;;;9.84;60.61
8573;BME280;4324;42.012;24.872;2023-04-28T03:23:35;99154.13;;;10.24;60.91
8573;BME280;4324;42.012;24.872;2023-04-28T03:26:03;99137.88;;;10.10;61.22
8573;BME280;4324;42.012;24.872;2023-04-28T03:28:30;99159.63;;;10.30;61.36
8573;BME280;4324;42.012;24.872;2023-04-28T03:30:57;99176.00;;;10.34;61.19
8573;BME280;4324;42.012;24.872;2023-04-28T03:33:24;99155.50;;;10.28;61.04
8573;BME280;4324;42.012;24.872;2023-04-28T03:35:51;99163.94;;;10.31;60.70
8573;BME280;4324;42.012;24.872;2023-04-28T03:38:18;99132.88;;;10.07;61.02
8573;BME280;4324;42.012;24.872;2023-04-28T03:40:45;99164.25;;;10.28;60.99
8573;BME280;4324;42.012;24.872;2023-04-28T03:43:14;99165.09;;;10.29;60.71
8573;BME280;4324;42.012;24.872;2023-04-28T03:45:41;99189.31;;;10.42;60.83
8573;BME280;4324;42.012;24.872;2023-04-28T03:48:08;99141.81;;;10.06;60.46
8573;BME280;4324;42.012;24.872;2023-04-28T03:50:35;99204.84;;;10.45;60.87
8573;BME280;4324;42.012;24.872;2023-04-28T03:53:02;99209.16;;;10.46;61.24
8573;BME280;4324;42.012;24.872;2023-04-28T03:55:29;99210.13;;;10.45;61.34
8573;BME280;4324;42.012;24.872;2023-04-28T03:57:56;99213.94;;;10.43;61.37
8573;BME280;4324;42.012;24.872;2023-04-28T04:00:24;99208.78;;;10.41;61.62
8573;BME280;4324;42.012;24.872;2023-04-28T04:02:51;99217.25;;;10.45;61.79
8573;BME280;4324;42.012;24.872;2023-04-28T04:05:18;99217.94;;;10.47;62.07
8573;BME280;4324;42.012;24.872;2023-04-28T04:07:45;99227.22;;;10.51;62.10
8573;BME280;4324;42.012;24.872;2023-04-28T04:10:12;99209.13;;;10.38;62.23
8573;BME280;4324;42.012;24.872;2023-04-28T04:12:39;99238.31;;;10.54;62.14
8573;BME280;4324;42.012;24.872;2023-04-28T04:15:07;99238.34;;;10.62;62.28
8573;BME280;4324;42.012;24.872;2023-04-28T04:17:35;99233.03;;;10.62;62.24
8573;BME280;4324;42.012;24.872;2023-04-28T04:20:02;99235.50;;;10.64;62.17
8573;BME280;4324;42.012;24.872;2023-04-28T04:22:29;99236.03;;;10.68;62.36
8573;BME280;4324;42.012;24.872;2023-04-28T04:24:56;99207.34;;;10.47;62.40
8573;BME280;4324;42.012;24.872;2023-04-28T04:27:23;99218.13;;;10.53;62.46
8573;BME280;4324;42.012;24.872;2023-04-28T04:29:50;99254.25;;;10.71;62.46
8573;BME280;4324;42.012;24.872;2023-04-28T04:32:17;99203.31;;;10.34;62.24
8573;BME280;4324;42.012;24.872;2023-04-28T04:34:45;99243.97;;;10.68;62.27
8573;BME280;4324;42.012;24.872;2023-04-28T04:37:12;99260.22;;;10.73;62.21
8573;BME280;4324;42.012;24.872;2023-04-28T04:39:39;99248.13;;;10.70;62.40
8573;BME280;4324;42.012;24.872;2023-04-28T04:42:06;99237.38;;;10.72;62.29
8573;BME280;4324;42.012;24.872;2023-04-28T04:44:33;99247.31;;;10.78;62.17
8573;BME280;4324;42.012;24.872;2023-04-28T04:47:00;99269.22;;;10.96;62.29
8573;BME280;4324;42.012;24.872;2023-04-28T04:49:26;99262.63;;;11.08;62.15
8573;BME280;4324;42.012;24.872;2023-04-28T04:51:55;99252.38;;;11.13;60.24
8573;BME280;4324;42.012;24.872;2023-04-28T04:54:22;99221.06;;;11.09;57.49
8573;BME280;4324;42.012;24.872;2023-04-28T04:56:49;99262.66;;;11.41;58.24
8573;BME280;4324;42.012;24.872;2023-04-28T04:59:16;99268.63;;;11.59;58.90
8573;BME280;4324;42.012;24.872;2023-04-28T05:01:43;99275.94;;;11.66;58.71
8573;BME280;4324;42.012;24.872;2023-04-28T05:04:09;99275.28;;;11.72;57.90
8573;BME280;4324;42.012;24.872;2023-04-28T05:06:36;99278.91;;;11.79;57.32
8573;BME280;4324;42.012;24.872;2023-04-28T05:09:05;99274.63;;;11.86;55.59
8573;BME280;4324;42.012;24.872;2023-04-28T05:11:32;99277.94;;;11.96;56.75
8573;BME280;4324;42.012;24.872;2023-04-28T05:13:59;99293.72;;;11.98;52.95
8573;BME280;4324;42.012;24.872;2023-04-28T05:16:25;99287.22;;;12.00;52.61
8573;BME280;4324;42.012;24.872;2023-04-28T05:18:52;99280.06;;;12.01;51.63
8573;BME280;4324;42.012;24.872;2023-04-28T05:21:19;99281.25;;;12.06;50.67
8573;BME280;4324;42.012;24.872;2023-04-28T05:23:46;99284.69;;;12.15;51.28
8573;BME280;4324;42.012;24.872;2023-04-28T05:26:14;99264.13;;;12.17;53.20
8573;BME280;4324;42.012;24.872;2023-04-28T05:28:41;99275.53;;;12.34;51.42
8573;BME280;4324;42.012;24.872;2023-04-28T05:31:08;99283.16;;;12.37;50.62
8573;BME280;4324;42.012;24.872;2023-04-28T05:33:35;99272.53;;;12.37;51.14
8573;BME280;4324;42.012;24.872;2023-04-28T05:36:02;99276.19;;;12.36;50.54
8573;BME280;4324;42.012;24.872;2023-04-28T05:38:29;99287.56;;;12.53;51.71
8573;BME280;4324;42.012;24.872;2023-04-28T05:40:58;99248.81;;;12.35;51.81
8573;BME280;4324;42.012;24.872;2023-04-28T05:43:26;99273.84;;;12.41;49.46
8573;BME280;4324;42.012;24.872;2023-04-28T05:45:53;99287.72;;;12.59;49.92
8573;BME280;4324;42.012;24.872;2023-04-28T05:48:20;99295.16;;;12.64;48.43
8573;BME280;4324;42.012;24.872;2023-04-28T05:50:47;99302.97;;;12.66;46.53
8573;BME280;4324;42.012;24.872;2023-04-28T05:53:14;99312.78;;;12.65;45.18
8573;BME280;4324;42.012;24.872;2023-04-28T05:55:40;99297.66;;;12.66;45.07
8573;BME280;4324;42.012;24.872;2023-04-28T05:58:07;99295.69;;;12.59;44.69
8573;BME280;4324;42.012;24.872;2023-04-28T06:00:35;99293.84;;;12.60;43.86
8573;BME280;4324;42.012;24.872;2023-04-28T06:03:02;99283.13;;;12.53;44.22
8573;BME280;4324;42.012;24.872;2023-04-28T06:05:29;99307.97;;;12.69;43.51
8573;BME280;4324;42.012;24.872;2023-04-28T06:07:56;99237.84;;;12.30;43.49
8573;BME280;4324;42.012;24.872;2023-04-28T06:10:25;99307.53;;;12.88;43.60
8573;BME280;4324;42.012;24.872;2023-04-28T06:12:51;99311.31;;;12.94;43.84
8573;BME280;4324;42.012;24.872;2023-04-28T06:15:18;99314.78;;;13.02;43.80
8573;BME280;4324;42.012;24.872;2023-04-28T06:17:47;99296.81;;;13.04;43.70
8573;BME280;4324;42.012;24.872;2023-04-28T06:20:14;99314.53;;;13.12;44.06
8573;BME280;4324;42.012;24.872;2023-04-28T06:22:41;99322.72;;;13.11;43.32
8573;BME280;4324;42.012;24.872;2023-04-28T06:25:08;99290.50;;;13.05;43.27
8573;BME280;4324;42.012;24.872;2023-04-28T06:27:35;99308.34;;;13.20;42.38
8573;BME280;4324;42.012;24.872;2023-04-28T06:30:02;99316.19;;;13.21;42.31
8573;BME280;4324;42.012;24.872;2023-04-28T06:32:29;99300.63;;;13.10;42.29
8573;BME280;4324;42.012;24.872;2023-04-28T06:34:58;99320.31;;;13.32;42.53
8573;BME280;4324;42.012;24.872;2023-04-28T06:37:25;99329.72;;;13.43;42.57
8573;BME280;4324;42.012;24.872;2023-04-28T06:39:52;99310.63;;;13.39;42.11
8573;BME280;4324;42.012;24.872;2023-04-28T06:42:19;99307.63;;;13.34;42.25
8573;BME280;4324;42.012;24.872;2023-04-28T06:44:46;99328.56;;;13.37;41.98
8573;BME280;4324;42.012;24.872;2023-04-28T06:47:12;99318.88;;;13.44;41.88
8573;BME280;4324;42.012;24.872;2023-04-28T06:49:39;99331.16;;;13.45;41.58
8573;BME280;4324;42.012;24.872;2023-04-28T06:52:09;99323.72;;;13.41;41.92
8573;BME280;4324;42.012;24.872;2023-04-28T06:54:36;99332.84;;;13.46;41.73
8573;BME280;4324;42.012;24.872;2023-04-28T06:57:03;99317.94;;;13.37;41.73
8573;BME280;4324;42.012;24.872;2023-04-28T06:59:30;99326.56;;;13.39;41.76
8573;BME280;4324;42.012;24.872;2023-04-28T07:01:57;99338.03;;;13.40;41.99
8573;BME280;4324;42.012;24.872;2023-04-28T07:04:24;99332.53;;;13.41;42.21
8573;BME280;4324;42.012;24.872;2023-04-28T07:06:51;99332.31;;;13.51;41.67
8573;BME280;4324;42.012;24.872;2023-04-28T07:09:20;99331.50;;;13.50;41.90
8573;BME280;4324;42.012;24.872;2023-04-28T07:11:47;99342.41;;;13.55;42.28
8573;BME280;4324;42.012;24.872;2023-04-28T07:14:14;99334.03;;;13.67;42.10
8573;BME280;4324;42.012;24.872;2023-04-28T07:16:41;99321.84;;;13.72;42.00
8573;BME280;4324;42.012;24.872;2023-04-28T07:19:07;99333.28;;;13.96;42.01
8573;BME280;4324;42.012;24.872;2023-04-28T07:21:34;99328.09;;;14.02;41.42
8573;BME280;4324;42.012;24.872;2023-04-28T07:24:01;99324.41;;;14.03;41.28
8573;BME280;4324;42.012;24.872;2023-04-28T07:26:29;99312.56;;;14.06;41.39
8573;BME280;4324;42.012;24.872;2023-04-28T07:28:59;99320.13;;;14.17;41.82
8573;BME280;4324;42.012;24.872;2023-04-28T07:31:26;99326.19;;;14.26;41.45
8573;BME280;4324;42.012;24.872;2023-04-28T07:33:53;99332.19;;;14.28;41.59
8573;BME280;4324;42.012;24.872;2023-04-28T07:36:20;99324.34;;;14.26;41.14
8573;BME280;4324;42.012;24.872;2023-04-28T07:38:47;99335.09;;;14.33;41.14
8573;BME280;4324;42.012;24.872;2023-04-28T07:41:16;99316.72;;;14.38;41.14
8573;BME280;4324;42.012;24.872;2023-04-28T07:43:44;99326.66;;;14.44;41.34
8573;BME280;4324;42.012;24.872;2023-04-28T07:46:11;99345.63;;;14.49;40.96
8573;BME280;4324;42.012;24.872;2023-04-28T07:48:38;99324.66;;;14.46;40.85
8573;BME280;4324;42.012;24.872;2023-04-28T07:51:05;99308.22;;;14.43;40.89
8573;BME280;4324;42.012;24.872;2023-04-28T07:53:32;99310.69;;;14.44;40.68
8573;BME280;4324;42.012;24.872;2023-04-28T07:55:59;99327.72;;;14.58;40.57
8573;BME280;4324;42.012;24.872;2023-04-28T07:58:26;99317.88;;;14.59;40.72
8573;BME280;4324;42.012;24.872;2023-04-28T08:00:54;99320.72;;;14.72;41.00
8573;BME280;4324;42.012;24.872;2023-04-28T08:03:21;99315.56;;;14.85;41.06
8573;BME280;4324;42.012;24.872;2023-04-28T08:05:48;99302.59;;;14.82;40.92
8573;BME280;4324;42.012;24.872;2023-04-28T08:08:15;99300.28;;;14.94;40.59
8573;BME280;4324;42.012;24.872;2023-04-28T08:10:42;99315.63;;;15.07;40.41
8573;BME280;4324;42.012;24.872;2023-04-28T08:13:09;99310.22;;;15.00;40.15
8573;BME280;4324;42.012;24.872;2023-04-28T08:15:36;99307.53;;;15.00;40.27
8573;BME280;4324;42.012;24.872;2023-04-28T08:18:04;99300.09;;;14.95;40.00
8573;BME280;4324;42.012;24.872;2023-04-28T08:20:31;99313.91;;;14.99;40.33
8573;BME280;4324;42.012;24.872;2023-04-28T08:22:58;99321.31;;;15.04;40.35
8573;BME280;4324;42.012;24.872;2023-04-28T08:25:25;99309.91;;;15.10;40.41
8573;BME280;4324;42.012;24.872;2023-04-28T08:27:52;99304.38;;;15.11;40.25
8573;BME280;4324;42.012;24.872;2023-04-28T08:30:20;99301.81;;;15.18;40.16
8573;BME280;4324;42.012;24.872;2023-04-28T08:32:47;99301.44;;;15.21;39.82
8573;BME280;4324;42.012;24.872;2023-04-28T08:35:15;99301.47;;;15.28;39.94
8573;BME280;4324;42.012;24.872;2023-04-28T08:37:43;99297.16;;;15.27;40.12
8573;BME280;4324;42.012;24.872;2023-04-28T08:40:11;99295.97;;;15.29;40.05
8573;BME280;4324;42.012;24.872;2023-04-28T08:42:38;99269.03;;;15.24;40.42
8573;BME280;4324;42.012;24.872;2023-04-28T08:45:07;99293.94;;;15.53;40.19
8573;BME280;4324;42.012;24.872;2023-04-28T08:47:35;99288.09;;;15.64;40.42
8573;BME280;4324;42.012;24.872;2023-04-28T08:50:03;99287.56;;;15.68;40.16
8573;BME280;4324;42.012;24.872;2023-04-28T08:52:33;99276.94;;;15.75;40.12
8573;BME280;4324;42.012;24.872;2023-04-28T08:55:05;99292.19;;;15.81;39.98
8573;BME280;4324;42.012;24.872;2023-04-28T08:57:35;99281.88;;;15.78;40.14
8573;BME280;4324;42.012;24.872;2023-04-28T09:00:04;99284.63;;;15.85;40.14
8573;BME280;4324;42.012;24.872;2023-04-28T09:02:31;99276.53;;;15.78;39.86
8573;BME280;4324;42.012;24.872;2023-04-28T09:04:58;99293.16;;;15.73;39.93
8573;BME280;4324;42.012;24.872;2023-04-28T09:07:24;99279.09;;;15.65;40.21
8573;BME280;4324;42.012;24.872;2023-04-28T09:10:15;99275.28;;;15.74;40.48
8573;BME280;4324;42.012;24.872;2023-04-28T09:12:42;99278.91;;;15.88;40.70
8573;BME280;4324;42.012;24.872;2023-04-28T09:15:09;99266.75;;;15.85;40.90
8573;BME280;4324;42.012;24.872;2023-04-28T09:17:47;99273.41;;;15.96;41.10
8573;BME280;4324;42.012;24.872;2023-04-28T09:20:20;99267.59;;;16.14;41.31
8573;BME280;4324;42.012;24.872;2023-04-28T09:22:49;99268.28;;;16.29;41.25
8573;BME280;4324;42.012;24.872;2023-04-28T09:25:18;99268.56;;;16.41;41.34
8573;BME280;4324;42.012;24.872;2023-04-28T09:27:46;99274.97;;;16.47;41.05
8573;BME280;4324;42.012;24.872;2023-04-28T09:30:13;99268.38;;;16.49;41.19
8573;BME280;4324;42.012;24.872;2023-04-28T09:32:40;99270.06;;;16.57;41.40
8573;BME280;4324;42.012;24.872;2023-04-28T09:35:07;99267.47;;;16.70;41.20
8573;BME280;4324;42.012;24.872;2023-04-28T09:37:34;99242.16;;;16.66;41.18
8573;BME280;4324;42.012;24.872;2023-04-28T09:40:05;99256.28;;;16.95;41.23
8573;BME280;4324;42.012;24.872;2023-04-28T09:42:35;99258.75;;;16.96;41.17
8573;BME280;4324;42.012;24.872;2023-04-28T09:45:03;99257.13;;;16.95;41.18
8573;BME280;4324;42.012;24.872;2023-04-28T09:47:31;99259.56;;;16.90;41.36
8573;BME280;4324;42.012;24.872;2023-04-28T09:50:00;99253.16;;;16.84;40.93
8573;BME280;4324;42.012;24.872;2023-04-28T09:52:27;99234.34;;;16.71;41.28
8573;BME280;4324;42.012;24.872;2023-04-28T09:54:55;99251.78;;;16.95;41.35
8573;BME280;4324;42.012;24.872;2023-04-28T09:57:23;99243.56;;;17.10;41.22
8573;BME280;4324;42.012;24.872;2023-04-28T09:59:52;99252.22;;;17.12;41.35
8573;BME280;4324;42.012;24.872;2023-04-28T10:02:20;99250.56;;;17.11;41.36
8573;BME280;4324;42.012;24.872;2023-04-28T10:04:49;99236.56;;;17.15;41.30
8573;BME280;4324;42.012;24.872;2023-04-28T10:07:17;99233.94;;;17.29;41.34
8573;BME280;4324;42.012;24.872;2023-04-28T10:09:45;99240.31;;;17.61;41.33
8573;BME280;4324;42.012;24.872;2023-04-28T10:12:15;99206.34;;;17.75;40.94
8573;BME280;4324;42.012;24.872;2023-04-28T10:14:42;99218.09;;;18.07;40.90
8573;BME280;4324;42.012;24.872;2023-04-28T10:17:12;99199.09;;;18.15;40.66
8573;BME280;4324;42.012;24.872;2023-04-28T10:19:39;99224.03;;;18.22;40.14
8573;BME280;4324;42.012;24.872;2023-04-28T10:22:31;99218.09;;;18.07;40.28
8573;BME280;4324;42.012;24.872;2023-04-28T10:25:23;99214.38;;;18.08;40.64
8573;BME280;4324;42.012;24.872;2023-04-28T10:27:51;99216.84;;;18.03;40.59
8573;BME280;4324;42.012;24.872;2023-04-28T10:30:20;99205.75;;;17.93;40.68
8573;BME280;4324;42.012;24.872;2023-04-28T10:33:21;99210.69;;;17.96;40.74
8573;BME280;4324;42.012;24.872;2023-04-28T10:35:49;99204.50;;;17.82;40.58
8573;BME280;4324;42.012;24.872;2023-04-28T10:38:16;99215.03;;;17.77;41.00
8573;BME280;4324;42.012;24.872;2023-04-28T10:40:44;99206.38;;;17.81;40.97
8573;BME280;4324;42.012;24.872;2023-04-28T10:43:12;99199.97;;;17.89;40.95
8573;BME280;4324;42.012;24.872;2023-04-28T10:46:04;99208.19;;;18.01;40.33
8573;BME280;4324;42.012;24.872;2023-04-28T10:49:06;99204.88;;;18.12;40.08
8573;BME280;4324;42.012;24.872;2023-04-28T10:51:33;99205.28;;;18.09;40.12
8573;BME280;4324;42.012;24.872;2023-04-28T10:54:14;99197.66;;;18.12;40.26
8573;BME280;4324;42.012;24.872;2023-04-28T10:57:19;99197.47;;;18.01;40.06
8573;BME280;4324;42.012;24.872;2023-04-28T10:59:47;99182.25;;;17.88;39.67
8573;BME280;4324;42.012;24.872;2023-04-28T11:02:41;99183.47;;;17.99;40.01
8573;BME280;4324;42.012;24.872;2023-04-28T11:05:13;99193.75;;;18.08;39.86
8573;BME280;4324;42.012;24.872;2023-04-28T11:11:19;99177.00;;;18.33;39.82
8573;BME280;4324;42.012;24.872;2023-04-28T11:13:47;99183.94;;;18.47;39.79
8573;BME280;4324;42.012;24.872;2023-04-28T11:16:16;99171.13;;;18.49;39.04
8573;BME280;4324;42.012;24.872;2023-04-28T11:18:51;99185.94;;;18.65;38.81
8573;BME280;4324;42.012;24.872;2023-04-28T11:21:21;99179.53;;;18.73;38.77
8573;BME280;4324;42.012;24.872;2023-04-28T11:23:48;99190.47;;;18.71;38.46
8573;BME280;4324;42.012;24.872;2023-04-28T11:26:18;99187.84;;;18.51;37.94
8573;BME280;4324;42.012;24.872;2023-04-28T11:28:47;99183.91;;;18.54;38.21
8573;BME280;4324;42.012;24.872;2023-04-28T11:31:15;99177.44;;;18.68;38.44
8573;BME280;4324;42.012;24.872;2023-04-28T11:33:50;99153.09;;;18.76;38.40
8573;BME280;4324;42.012;24.872;2023-04-28T11:36:28;99174.03;;;18.93;38.35
8573;BME280;4324;42.012;24.872;2023-04-28T11:38:56;99172.84;;;18.89;38.15
8573;BME280;4324;42.012;24.872;2023-04-28T11:41:23;99174.91;;;18.86;38.34
8573;BME280;4324;42.012;24.872;2023-04-28T11:43:51;99174.50;;;18.83;38.01
8573;BME280;4324;42.012;24.872;2023-04-28T11:46:19;99175.16;;;18.78;38.12
8573;BME280;4324;42.012;24.872;2023-04-28T11:48:46;99174.50;;;18.83;38.17
8573;BME280;4324;42.012;24.872;2023-04-28T11:51:36;99151.88;;;18.66;37.94
8573;BME280;4324;42.012;24.872;2023-04-28T11:54:04;99167.97;;;18.72;38.00
8573;BME280;4324;42.012;24.872;2023-04-28T11:56:37;99163.69;;;18.58;37.86
8573;BME280;4324;42.012;24.872;2023-04-28T11:59:05;99147.47;;;18.40;37.92
8573;BME280;4324;42.012;24.872;2023-04-28T12:01:42;99126.13;;;18.13;37.69
8573;BME280;4324;42.012;24.872;2023-04-28T12:04:09;99149.16;;;18.27;37.90
8573;BME280;4324;42.012;24.872;2023-04-28T12:06:38;99102.22;;;18.11;38.02
8573;BME280;4324;42.012;24.872;2023-04-28T12:09:14;99143.19;;;18.70;38.10
8573;BME280;4324;42.012;24.872;2023-04-28T12:11:51;99139.56;;;18.96;37.82
8573;BME280;4324;42.012;24.872;2023-04-28T12:14:19;99139.78;;;19.20;37.86
8573;BME280;4324;42.012;24.872;2023-04-28T12:16:46;99133.31;;;19.27;37.39
8573;BME280;4324;42.012;24.872;2023-04-28T12:19:14;99134.22;;;19.21;37.09
8573;BME280;4324;42.012;24.872;2023-04-28T12:21:42;99130.56;;;19.09;37.10
8573;BME280;4324;42.012;24.872;2023-04-28T12:24:17;99121.66;;;19.15;37.38
8573;BME280;4324;42.012;24.872;2023-04-28T12:26:44;99114.16;;;19.24;37.46
8573;BME280;4324;42.012;24.872;2023-04-28T12:29:37;99106.28;;;19.29;37.14
8573;BME280;4324;42.012;24.872;2023-04-28T12:32:05;99095.38;;;18.99;37.07
8573;BME280;4324;42.012;24.872;2023-04-28T12:34:32;99103.84;;;18.96;37.22
8573;BME280;4324;42.012;24.872;2023-04-28T12:37:01;99097.44;;;18.97;37.03
8573;BME280;4324;42.012;24.872;2023-04-28T12:39:30;99091.28;;;18.90;36.73
8573;BME280;4324;42.012;24.872;2023-04-28T12:41:57;99094.41;;;18.86;36.92
8573;BME280;4324;42.012;24.872;2023-04-28T12:44:25;99095.19;;;18.94;37.27
8573;BME280;4324;42.012;24.872;2023-04-28T12:46:52;99096.88;;;18.88;36.31
8573;BME280;4324;42.012;24.872;2023-04-28T12:49:20;99086.66;;;18.72;36.41
8573;BME280;4324;42.012;24.872;2023-04-28T12:51:47;99078.81;;;18.70;36.45
8573;BME280;4324;42.012;24.872;2023-04-28T12:54:16;99073.72;;;18.62;36.65
8573;BME280;4324;42.012;24.872;2023-04-28T12:56:42;99078.00;;;18.70;36.72
8573;BME280;4324;42.012;24.872;2023-04-28T12:59:09;99074.31;;;18.71;36.65
8573;BME280;4324;42.012;24.872;2023-04-28T13:01:36;99063.63;;;18.57;36.56
8573;BME280;4324;42.012;24.872;2023-04-28T13:04:03;99063.69;;;18.51;36.72
8573;BME280;4324;42.012;24.872;2023-04-28T13:06:31;99076.47;;;18.49;35.98
8573;BME280;4324;42.012;24.872;2023-04-28T13:08:58;99067.44;;;18.43;36.21
8573;BME280;4324;42.012;24.872;2023-04-28T13:11:26;99039.19;;;18.41;36.68
8573;BME280;4324;42.012;24.872;2023-04-28T13:13:53;99053.03;;;18.69;36.72
8573;BME280;4324;42.012;24.872;2023-04-28T13:16:22;99051.16;;;18.76;36.42
8573;BME280;4324;42.012;24.872;2023-04-28T13:18:54;99034.28;;;18.69;36.51
8573;BME280;4324;42.012;24.872;2023-04-28T13:21:22;99051.91;;;18.83;36.41